ダーウィン の空港の天気 - METARとTAF

ダーウィン国際空港 ( YPDN / DRW ) - オーストラリア ノーザンテリトリーダーウィン
飛行場実況気象(Metar)
観測時間05/30 02:30 ACST (05/29 17:00 UTC)
風向・風速南東 1m/s
視程10km以上
天気現象
なし
気温21℃
湿度88%
気圧1015hPa
METARYPDN 291700Z AUTO 13002KT 9999 // NCD 21/19 Q1015
過去の天気等 Google飛行場航空写真 Wunderground天気予報

過去48時間のMETAR

飛行場予報(TAF)
発表時間: 5/29 20:34 ACST (5/29 11:04 UTC)
予報対象時間: 29日21時 ACST ~ 31日3時 ACST
風向・風速不定 2m/s
視程10km以上
なし
30日2時 ACST から
風向・風速東南東 3m/s
視程10km以上
少しの雲 雲底高度 460m
30日9時 ACST から
風向・風速東 6m/s
視程10km以上
なし
30日14時 ACST から
風向・風速北北東 4m/s
視程10km以上
なし
30日22時 ACST から
風向・風速不定 2m/s
視程10km以上
全天の4割程度の雲 雲底高度 460m
TAF YPDN 291104Z 2912/3018 VRB03KT CAVOK
FM291700 12005KT 9999 FEW015
FM300000 08012KT CAVOK
FM300500 03007KT CAVOK
FM301300 VRB03KT 9999 SCT015